createdAt,value
2023-11-13T00:01:07.244Z,12.80
2023-11-13T00:03:49.671Z,11.82
2023-11-13T00:06:18.746Z,12.20
2023-11-13T00:08:47.940Z,10.70
2023-11-13T00:11:18.346Z,12.73
2023-11-13T00:13:47.776Z,11.07
2023-11-13T00:16:16.899Z,12.18
2023-11-13T00:18:46.289Z,12.15
2023-11-13T00:21:17.088Z,11.27
2023-11-13T00:23:46.500Z,10.70
2023-11-13T00:26:15.426Z,11.50
2023-11-13T00:28:53.886Z,9.98
2023-11-13T00:31:23.914Z,10.68
2023-11-13T00:33:53.324Z,11.13
2023-11-13T00:36:22.534Z,10.93
2023-11-13T00:38:51.917Z,10.50
2023-11-13T00:41:21.020Z,10.57
2023-11-13T00:43:50.209Z,9.20
2023-11-13T00:46:20.465Z,9.82
2023-11-13T00:48:50.150Z,9.40
2023-11-13T00:51:19.297Z,10.35
2023-11-13T00:53:48.441Z,10.00
2023-11-13T00:56:17.634Z,9.57
2023-11-13T00:58:47.100Z,9.07
2023-11-13T01:01:16.177Z,8.93
2023-11-13T01:03:48.083Z,8.05
2023-11-13T01:06:18.043Z,8.18
2023-11-13T01:08:47.178Z,8.23
2023-11-13T01:11:16.392Z,7.47
2023-11-13T01:13:45.629Z,8.30
2023-11-13T01:16:15.306Z,7.85
2023-11-13T01:18:47.527Z,7.45
2023-11-13T01:21:16.675Z,6.60
2023-11-13T01:23:46.000Z,7.03
2023-11-13T01:26:14.907Z,6.90
2023-11-13T01:28:44.151Z,7.57
2023-11-13T01:31:13.114Z,6.75
2023-11-13T01:33:42.352Z,5.88
2023-11-13T01:36:12.662Z,6.25
2023-11-13T01:38:41.881Z,6.35
2023-11-13T01:41:10.771Z,6.47
2023-11-13T01:43:40.027Z,5.25
2023-11-13T01:46:12.289Z,5.95
2023-11-13T01:48:42.064Z,5.32
2023-11-13T01:51:12.276Z,5.63
2023-11-13T01:53:41.692Z,5.22
2023-11-13T01:56:11.087Z,5.00
2023-11-13T01:58:40.405Z,4.80
2023-11-13T02:01:10.037Z,4.15
2023-11-13T02:03:41.941Z,4.90
2023-11-13T02:06:12.629Z,4.97
2023-11-13T02:08:41.823Z,5.13
2023-11-13T02:11:11.787Z,4.82
2023-11-13T02:13:41.468Z,5.00
2023-11-13T02:16:13.449Z,4.80
2023-11-13T02:18:42.881Z,5.10
2023-11-13T02:21:13.365Z,5.45
2023-11-13T02:23:43.880Z,6.00
2023-11-13T02:26:16.834Z,5.68
2023-11-13T02:28:46.677Z,6.00
2023-11-13T02:31:15.649Z,5.72
2023-11-13T02:33:44.822Z,5.72
2023-11-13T02:36:13.844Z,5.38
2023-11-13T02:38:44.295Z,4.72
2023-11-13T02:41:14.960Z,6.28
2023-11-13T02:43:44.201Z,5.30
2023-11-13T02:46:13.172Z,4.95
2023-11-13T02:48:44.022Z,5.75
2023-11-13T02:51:12.914Z,5.32
2023-11-13T02:53:43.430Z,5.20
2023-11-13T02:56:12.469Z,5.20
2023-11-13T02:58:42.104Z,4.85
2023-11-13T03:01:10.983Z,5.18
2023-11-13T03:03:40.434Z,5.72
2023-11-13T03:06:09.598Z,4.82
2023-11-13T03:08:38.840Z,5.20
2023-11-13T03:11:09.683Z,4.82
2023-11-13T03:13:38.969Z,5.70
2023-11-13T03:16:08.435Z,4.93
2023-11-13T03:18:38.037Z,3.80
2023-11-13T03:21:08.224Z,3.67
2023-11-13T03:23:37.570Z,3.20
2023-11-13T03:26:08.013Z,2.72
2023-11-13T03:28:38.424Z,2.10
2023-11-13T03:31:09.430Z,2.50
2023-11-13T03:33:39.341Z,2.10
2023-11-13T03:36:09.128Z,1.90
2023-11-13T03:38:38.472Z,1.60
2023-11-13T03:41:09.044Z,1.70
2023-11-13T03:43:38.694Z,1.52
2023-11-13T03:46:07.637Z,1.60
2023-11-13T03:48:36.752Z,1.50
2023-11-13T03:51:07.290Z,1.85
2023-11-13T03:53:36.829Z,1.65
2023-11-13T03:56:06.470Z,2.00
2023-11-13T03:58:37.184Z,2.08
2023-11-13T04:01:06.444Z,1.80
2023-11-13T04:03:35.823Z,2.30
2023-11-13T04:06:06.220Z,2.53
2023-11-13T04:08:35.785Z,2.55
2023-11-13T04:11:06.225Z,2.70
2023-11-13T04:13:37.539Z,2.55
2023-11-13T04:16:09.117Z,2.83
2023-11-13T04:18:38.569Z,3.47
2023-11-13T04:21:07.629Z,3.60
2023-11-13T04:23:37.190Z,4.03
2023-11-13T04:26:06.465Z,4.40
2023-11-13T04:28:39.377Z,4.18
2023-11-13T04:31:15.746Z,4.25
2023-11-13T04:33:45.369Z,5.13
2023-11-13T04:36:14.929Z,4.03
2023-11-13T04:38:44.214Z,5.03
2023-11-13T04:41:16.741Z,4.93
2023-11-13T04:43:48.224Z,5.57
2023-11-13T04:46:17.496Z,4.75
2023-11-13T04:48:46.790Z,6.43
2023-11-13T04:51:15.926Z,6.05
2023-11-13T04:53:45.017Z,6.75
2023-11-13T04:56:14.060Z,6.60
2023-11-13T04:58:44.317Z,6.82
2023-11-13T05:01:14.832Z,7.18
2023-11-13T05:03:44.038Z,7.32
2023-11-13T05:06:16.624Z,7.93
2023-11-13T05:08:46.315Z,7.20
2023-11-13T05:11:24.913Z,7.63
2023-11-13T05:13:54.740Z,7.63
2023-11-13T05:16:26.955Z,7.05
2023-11-13T05:18:56.529Z,7.78
2023-11-13T05:21:26.406Z,8.13
2023-11-13T05:23:55.646Z,7.93
2023-11-13T05:26:24.582Z,8.07
2023-11-13T05:28:54.306Z,8.15
2023-11-13T05:31:24.699Z,8.13
2023-11-13T05:33:53.915Z,8.32
2023-11-13T05:36:22.932Z,8.45
2023-11-13T05:38:52.288Z,9.00
2023-11-13T05:41:21.200Z,9.63
2023-11-13T05:43:51.525Z,9.20
2023-11-13T05:46:20.517Z,8.93
2023-11-13T05:48:50.992Z,9.57
2023-11-13T05:51:22.035Z,9.43
2023-11-13T05:53:51.334Z,8.98
2023-11-13T05:56:20.386Z,9.40
2023-11-13T05:58:50.173Z,10.10
2023-11-13T06:01:20.717Z,10.05
2023-11-13T06:03:51.422Z,10.73
2023-11-13T06:06:20.410Z,9.25
2023-11-13T06:08:49.564Z,10.40
2023-11-13T06:11:18.481Z,10.10
2023-11-13T06:13:48.061Z,14.35
2023-11-13T06:16:17.998Z,10.88
2023-11-13T06:18:51.362Z,9.73
2023-11-13T06:21:23.159Z,9.75
2023-11-13T06:23:52.418Z,10.57
2023-11-13T06:26:21.277Z,10.52
2023-11-13T06:28:50.432Z,10.00
2023-11-13T06:31:26.844Z,10.05
2023-11-13T06:33:57.944Z,8.63
2023-11-13T06:36:26.748Z,8.65
2023-11-13T06:38:55.871Z,9.27
2023-11-13T06:41:24.988Z,9.55
2023-11-13T06:43:55.250Z,9.55
2023-11-13T06:46:24.396Z,9.40
2023-11-13T06:48:53.674Z,9.00
2023-11-13T06:51:23.552Z,8.60
2023-11-13T06:53:53.894Z,8.60
2023-11-13T06:56:22.900Z,9.57
2023-11-13T06:58:52.173Z,7.82
2023-11-13T07:01:22.063Z,9.02
2023-11-13T07:03:51.381Z,9.48
2023-11-13T07:06:20.416Z,8.73
2023-11-13T07:08:50.954Z,8.90
2023-11-13T07:11:23.668Z,9.02
2023-11-13T07:13:53.978Z,8.23
2023-11-13T07:16:23.015Z,8.65
2023-11-13T07:18:52.197Z,9.73
2023-11-13T07:21:21.049Z,8.15
2023-11-13T07:23:51.605Z,8.80
2023-11-13T07:26:20.472Z,7.82
2023-11-13T07:28:49.724Z,7.93
2023-11-13T07:31:18.966Z,7.07
2023-11-13T07:33:48.278Z,7.47
2023-11-13T07:36:17.422Z,7.65
2023-11-13T07:38:47.469Z,7.95
2023-11-13T07:41:17.702Z,7.32
2023-11-13T07:43:49.462Z,7.35
2023-11-13T07:46:19.877Z,8.13
2023-11-13T07:48:49.163Z,7.95
2023-11-13T07:51:19.690Z,7.30
2023-11-13T07:53:49.880Z,8.23
2023-11-13T07:56:20.821Z,7.38
2023-11-13T07:58:50.165Z,7.70
2023-11-13T08:01:20.518Z,7.90
2023-11-13T08:03:50.197Z,7.07
2023-11-13T08:06:19.321Z,6.82
2023-11-13T08:08:50.701Z,6.38
2023-11-13T08:11:21.215Z,7.03
2023-11-13T08:13:50.468Z,7.82
2023-11-13T08:16:20.254Z,7.38
2023-11-13T08:18:49.446Z,7.90
2023-11-13T08:21:18.566Z,7.38
2023-11-13T08:23:47.794Z,7.25
2023-11-13T08:26:16.684Z,7.28
2023-11-13T08:28:47.941Z,6.75
2023-11-13T08:31:17.705Z,7.10
2023-11-13T08:33:48.603Z,6.57
2023-11-13T08:36:23.839Z,7.32
2023-11-13T08:38:54.253Z,6.60
2023-11-13T08:41:24.110Z,7.72
2023-11-13T08:43:54.724Z,7.07
2023-11-13T08:46:25.430Z,7.10
2023-11-13T08:48:55.901Z,6.72
2023-11-13T08:51:28.987Z,7.65
2023-11-13T08:54:01.225Z,7.70
2023-11-13T08:56:29.487Z,8.00
2023-11-13T08:59:00.348Z,7.00
2023-11-13T09:01:31.624Z,8.07
2023-11-13T09:04:02.179Z,7.45
2023-11-13T09:06:36.245Z,6.60
2023-11-13T09:09:13.327Z,7.15
2023-11-13T09:11:43.334Z,6.18
2023-11-13T09:14:18.548Z,6.75
2023-11-13T09:16:47.490Z,6.88
2023-11-13T09:19:16.610Z,6.07
2023-11-13T09:21:47.164Z,6.43
2023-11-13T09:24:16.400Z,6.63
2023-11-13T09:26:48.704Z,6.90
2023-11-13T09:29:21.805Z,7.40
2023-11-13T09:31:50.752Z,7.40
2023-11-13T09:34:20.249Z,7.43
2023-11-13T09:36:49.910Z,7.30
2023-11-13T09:39:19.920Z,6.90
2023-11-13T09:41:52.174Z,6.57
2023-11-13T09:44:24.763Z,6.63
2023-11-13T09:46:54.773Z,6.18
2023-11-13T09:49:30.696Z,6.68
2023-11-13T09:52:04.410Z,6.80
2023-11-13T09:54:34.946Z,7.28
2023-11-13T09:57:06.009Z,7.00
2023-11-13T09:59:39.120Z,6.95
2023-11-13T10:02:10.146Z,7.72
2023-11-13T10:04:39.722Z,7.00
2023-11-13T10:07:11.913Z,7.28
2023-11-13T10:09:41.157Z,7.50
2023-11-13T10:12:11.743Z,8.02
2023-11-13T10:15:04.140Z,7.18
2023-11-13T10:17:44.957Z,7.50
2023-11-13T10:20:18.363Z,6.55
2023-11-13T10:22:57.370Z,7.68
2023-11-13T10:25:27.390Z,6.88
2023-11-13T10:28:01.178Z,6.95
2023-11-13T10:30:31.929Z,7.20
2023-11-13T10:33:15.522Z,7.45
2023-11-13T10:35:46.648Z,7.32
2023-11-13T10:38:15.683Z,7.82
2023-11-13T10:40:55.148Z,7.22
2023-11-13T10:43:33.804Z,7.18
2023-11-13T10:46:06.116Z,6.75
2023-11-13T10:48:43.135Z,7.32
2023-11-13T10:51:15.590Z,7.20
2023-11-13T10:53:44.935Z,6.60
2023-11-13T10:56:15.891Z,7.45
2023-11-13T10:58:45.154Z,6.88
2023-11-13T11:01:22.005Z,7.32
2023-11-13T11:03:54.971Z,7.32
2023-11-13T11:06:26.195Z,7.90
2023-11-13T11:08:59.745Z,8.15
2023-11-13T11:11:35.516Z,7.15
2023-11-13T11:14:11.896Z,8.02
2023-11-13T11:16:49.520Z,8.45
2023-11-13T11:19:30.509Z,7.38
2023-11-13T11:22:11.472Z,8.20
2023-11-13T11:25:06.744Z,8.45
2023-11-13T11:27:38.299Z,7.72
2023-11-13T11:30:36.911Z,8.75
2023-11-13T11:33:11.007Z,8.88
2023-11-13T11:35:43.625Z,8.77
2023-11-13T11:38:23.814Z,8.30
2023-11-13T11:40:53.613Z,8.68
2023-11-13T11:43:24.305Z,8.38
2023-11-13T11:45:55.071Z,9.13
2023-11-13T11:48:27.477Z,8.25
2023-11-13T11:50:58.963Z,8.32
2023-11-13T11:53:32.251Z,8.55
2023-11-13T11:56:01.056Z,8.18
2023-11-13T11:58:31.225Z,8.63
2023-11-13T12:01:00.345Z,7.75
2023-11-13T12:03:31.230Z,8.02
2023-11-13T12:06:01.149Z,7.90
2023-11-13T12:08:30.305Z,8.77
2023-11-13T12:10:59.185Z,8.20
2023-11-13T12:13:29.180Z,8.38
2023-11-13T12:15:59.949Z,7.28
2023-11-13T12:18:31.171Z,7.50
2023-11-13T12:21:01.151Z,8.02
2023-11-13T12:23:31.685Z,7.88
2023-11-13T12:26:00.848Z,7.93
2023-11-13T12:28:30.149Z,7.68
2023-11-13T12:30:59.318Z,7.82
2023-11-13T12:33:30.151Z,7.68
2023-11-13T12:35:59.972Z,7.82
2023-11-13T12:38:29.459Z,8.02
2023-11-13T12:41:00.995Z,7.80
2023-11-13T12:43:30.649Z,7.75
2023-11-13T12:46:00.529Z,6.97
2023-11-13T12:48:32.062Z,7.50
2023-11-13T12:51:02.183Z,6.72
2023-11-13T12:53:35.562Z,6.05
2023-11-13T12:56:07.148Z,5.93
2023-11-13T12:58:37.821Z,5.43
2023-11-13T13:01:07.679Z,5.85
2023-11-13T13:03:38.752Z,5.95
2023-11-13T13:06:09.668Z,5.93
2023-11-13T13:08:38.946Z,5.70
2023-11-13T13:11:08.260Z,5.07
2023-11-13T13:13:45.632Z,5.10
2023-11-13T13:16:21.563Z,4.45
2023-11-13T13:18:53.252Z,4.47
2023-11-13T13:21:23.315Z,4.88
2023-11-13T13:23:52.470Z,5.13
2023-11-13T13:26:22.150Z,5.15
2023-11-13T13:28:54.374Z,4.63
2023-11-13T13:31:24.858Z,4.80
2023-11-13T13:33:55.782Z,5.80
2023-11-13T13:36:25.796Z,5.40
2023-11-13T13:38:57.103Z,5.70
2023-11-13T13:41:26.802Z,7.70
2023-11-13T13:43:56.021Z,6.85
2023-11-13T13:46:27.223Z,5.63
2023-11-13T13:48:57.923Z,6.20
2023-11-13T13:51:26.874Z,6.13
2023-11-13T13:53:56.240Z,6.32
2023-11-13T14:01:04.011Z,5.00
2023-11-13T14:03:33.437Z,6.10
2023-11-13T14:06:02.696Z,6.38
2023-11-13T14:08:32.244Z,5.75
2023-11-13T14:11:02.294Z,5.78
2023-11-13T14:13:31.517Z,6.28
2023-11-13T14:16:07.999Z,6.22
2023-11-13T14:18:40.297Z,6.32
2023-11-13T14:21:13.717Z,6.15
2023-11-13T14:23:44.817Z,6.63
2023-11-13T14:26:17.475Z,5.85
2023-11-13T14:28:47.421Z,6.32
2023-11-13T14:31:17.676Z,7.38
2023-11-13T14:33:49.062Z,8.15
2023-11-13T14:36:19.132Z,7.47
2023-11-13T14:38:49.433Z,6.95
2023-11-13T14:41:18.725Z,7.38
2023-11-13T14:43:47.925Z,6.82
2023-11-13T14:46:18.663Z,7.80
2023-11-13T14:48:47.894Z,7.78
2023-11-13T14:51:16.741Z,6.75
2023-11-13T14:53:45.930Z,7.93
2023-11-13T14:56:15.299Z,7.80
2023-11-13T14:58:44.607Z,6.85
2023-11-13T15:01:13.777Z,8.07
2023-11-13T15:03:44.718Z,7.45
2023-11-13T15:06:13.660Z,7.93
2023-11-13T15:08:42.856Z,7.93
2023-11-13T15:11:12.061Z,8.13
2023-11-13T15:13:42.133Z,9.15
2023-11-13T15:16:12.035Z,8.90
2023-11-13T15:18:47.919Z,9.38
2023-11-13T15:21:20.832Z,10.70
2023-11-13T15:23:50.161Z,11.25
2023-11-13T15:26:18.730Z,11.80
2023-11-13T15:28:48.083Z,12.43
2023-11-13T15:31:17.755Z,14.15
2023-11-13T15:33:47.355Z,14.35
2023-11-13T15:36:16.217Z,13.50
2023-11-13T15:38:46.725Z,17.63
2023-11-13T15:41:15.752Z,19.20
2023-11-13T15:43:44.962Z,16.67
2023-11-13T15:46:17.504Z,19.23
2023-11-13T15:48:47.727Z,19.60
2023-11-13T15:51:17.391Z,20.48
2023-11-13T15:53:48.825Z,19.50
2023-11-13T15:56:17.783Z,16.35
2023-11-13T15:58:47.139Z,15.85
2023-11-13T16:01:16.021Z,14.85
2023-11-13T16:03:45.820Z,14.43
2023-11-13T16:06:16.438Z,15.45
2023-11-13T16:08:47.109Z,15.35
2023-11-13T16:11:16.085Z,14.32
2023-11-13T16:13:47.431Z,18.08
2023-11-13T16:16:20.426Z,29.60
2023-11-13T16:18:50.627Z,17.73
2023-11-13T16:21:20.796Z,12.90
2023-11-13T16:23:52.444Z,13.32
2023-11-13T16:26:21.319Z,13.07
2023-11-13T16:28:50.546Z,12.82
2023-11-13T16:31:23.485Z,11.73
2023-11-13T16:33:52.724Z,11.90
2023-11-13T16:36:21.605Z,10.88
2023-11-13T16:38:52.176Z,11.50
2023-11-13T16:41:25.476Z,11.75
2023-11-13T16:43:54.808Z,11.88
2023-11-13T16:46:24.789Z,12.20
2023-11-13T16:48:54.067Z,13.57
2023-11-13T16:51:23.012Z,18.15
2023-11-13T16:53:53.865Z,17.27
2023-11-13T16:56:24.032Z,17.75
2023-11-13T16:58:54.044Z,17.27
2023-11-13T17:01:25.283Z,16.20
2023-11-13T17:03:54.625Z,15.40
2023-11-13T17:06:23.600Z,14.73
2023-11-13T17:08:56.101Z,15.02
2023-11-13T17:11:25.106Z,14.85
2023-11-13T17:13:54.486Z,13.65
2023-11-13T17:16:23.632Z,14.10
2023-11-13T17:18:53.379Z,14.80
2023-11-13T17:21:22.653Z,16.00
2023-11-13T17:23:53.280Z,15.55
2023-11-13T17:26:22.268Z,16.05
2023-11-13T17:28:51.417Z,15.48
2023-11-13T17:31:20.325Z,15.00
2023-11-13T17:33:49.561Z,15.93
2023-11-13T17:36:18.475Z,14.50
2023-11-13T17:38:47.663Z,16.30
2023-11-13T17:41:18.175Z,16.17
2023-11-13T17:43:47.928Z,16.65
2023-11-13T17:46:16.958Z,20.92
2023-11-13T17:48:46.438Z,26.92
2023-11-13T17:51:15.491Z,40.72
2023-11-13T17:53:44.613Z,51.90
2023-11-13T17:56:13.427Z,34.80
2023-11-13T17:58:44.103Z,21.50
2023-11-13T18:01:13.274Z,21.75
2023-11-13T18:03:43.521Z,20.50
2023-11-13T18:06:12.645Z,24.15
2023-11-13T18:08:41.911Z,19.42
2023-11-13T18:11:11.883Z,18.30
2023-11-13T18:13:44.556Z,17.98
2023-11-13T18:16:15.849Z,18.55
2023-11-13T18:18:45.121Z,18.40
2023-11-13T18:21:14.082Z,19.25
2023-11-13T18:23:43.331Z,19.00
2023-11-13T18:26:12.833Z,18.70
2023-11-13T18:28:45.419Z,18.38
2023-11-13T18:31:14.711Z,17.90
2023-11-13T18:33:43.902Z,17.10
2023-11-13T18:36:14.131Z,15.98
2023-11-13T18:38:43.490Z,16.95
2023-11-13T18:41:13.505Z,19.67
2023-11-13T18:43:44.173Z,21.58
2023-11-13T18:46:13.395Z,21.83
2023-11-13T18:48:43.296Z,21.48
2023-11-13T18:51:15.521Z,23.50
2023-11-13T18:53:44.810Z,22.90
2023-11-13T18:56:16.209Z,23.52
2023-11-13T18:58:47.052Z,21.60
2023-11-13T19:01:18.877Z,22.33
2023-11-13T19:03:49.649Z,21.90
2023-11-13T19:06:18.822Z,20.60
2023-11-13T19:08:48.398Z,22.20
2023-11-13T19:11:17.977Z,23.85
2023-11-13T19:13:49.962Z,23.08
2023-11-13T19:16:19.388Z,23.90
2023-11-13T19:18:49.323Z,22.23
2023-11-13T19:21:20.610Z,20.48
2023-11-13T19:23:49.734Z,19.67
2023-11-13T19:26:19.294Z,22.52
2023-11-13T19:28:51.510Z,23.00
2023-11-13T19:31:20.797Z,26.35
2023-11-13T19:33:50.407Z,24.98
2023-11-13T19:36:19.733Z,25.67
2023-11-13T19:38:49.162Z,25.17
2023-11-13T19:41:18.036Z,24.10
2023-11-13T19:43:47.794Z,25.80
2023-11-13T19:46:18.120Z,24.50
2023-11-13T19:48:47.370Z,24.85
2023-11-13T19:51:17.586Z,24.38
2023-11-13T19:53:46.830Z,25.00
2023-11-13T19:56:15.730Z,24.70
2023-11-13T19:58:49.772Z,25.25
2023-11-13T20:01:20.515Z,25.98
2023-11-13T20:03:50.035Z,25.73
2023-11-13T20:06:19.174Z,26.58
2023-11-13T20:08:50.468Z,26.35
2023-11-13T20:11:21.366Z,25.48
2023-11-13T20:13:50.637Z,24.58
2023-11-13T20:16:21.222Z,25.38
2023-11-13T20:18:51.645Z,25.42
2023-11-13T20:21:20.686Z,25.13
2023-11-13T20:23:49.890Z,26.17
2023-11-13T20:26:18.769Z,24.17
2023-11-13T20:28:47.936Z,26.05
2023-11-13T20:31:17.043Z,25.67
2023-11-13T20:33:48.531Z,27.73
2023-11-13T20:36:17.433Z,26.25
2023-11-13T20:38:46.620Z,25.88
2023-11-13T20:41:16.539Z,25.95
2023-11-13T20:43:46.887Z,23.65
2023-11-13T20:46:15.854Z,23.95
2023-11-13T20:48:46.620Z,22.88
2023-11-13T20:51:15.650Z,21.98
2023-11-13T20:53:44.901Z,23.38
2023-11-13T20:56:15.069Z,22.67
2023-11-13T20:58:46.772Z,22.77
2023-11-13T21:01:15.839Z,21.85
2023-11-13T21:03:47.054Z,20.92
2023-11-13T21:06:16.031Z,20.48
2023-11-13T21:08:45.138Z,20.35
2023-11-13T21:11:13.958Z,21.35
2023-11-13T21:13:46.251Z,21.17
2023-11-13T21:16:15.227Z,20.73
2023-11-13T21:18:44.595Z,20.25
2023-11-13T21:21:15.688Z,20.52
2023-11-13T21:23:44.923Z,18.90
2023-11-13T21:26:13.823Z,18.85
2023-11-13T21:28:43.081Z,19.88
2023-11-13T21:31:14.082Z,17.42
2023-11-13T21:33:44.565Z,17.30
2023-11-13T21:36:15.029Z,18.33
2023-11-13T21:38:45.972Z,17.15
2023-11-13T21:41:14.939Z,16.48
2023-11-13T21:43:45.660Z,17.20
2023-11-13T21:46:14.590Z,16.30
2023-11-13T21:48:43.732Z,16.63
2023-11-13T21:51:14.427Z,16.33
2023-11-13T21:53:44.683Z,18.23
2023-11-13T21:56:13.574Z,17.67
2023-11-13T21:58:43.006Z,17.50
2023-11-13T22:01:13.437Z,18.33
2023-11-13T22:03:43.135Z,17.92
2023-11-13T22:06:12.657Z,18.40
2023-11-13T22:08:43.197Z,20.30
2023-11-13T22:11:12.132Z,20.58
2023-11-13T22:13:42.612Z,19.48
2023-11-13T22:16:12.645Z,20.35
2023-11-13T22:18:41.805Z,20.10
2023-11-13T22:21:10.818Z,18.48
2023-11-13T22:23:40.073Z,18.30
2023-11-13T22:26:10.461Z,19.10
2023-11-13T22:28:39.820Z,19.38
2023-11-13T22:31:08.755Z,18.17
2023-11-13T22:33:37.848Z,19.77
2023-11-13T22:36:07.913Z,20.55
2023-11-13T22:38:37.438Z,19.70
2023-11-13T22:41:07.347Z,21.00
2023-11-13T22:43:37.846Z,20.13
2023-11-13T22:46:07.235Z,20.63
2023-11-13T22:48:36.384Z,18.65
2023-11-13T22:51:05.943Z,19.92
2023-11-13T22:53:35.901Z,20.88
2023-11-13T22:56:05.127Z,20.90
2023-11-13T22:58:34.278Z,21.13
2023-11-13T23:01:05.501Z,20.73
2023-11-13T23:03:34.888Z,21.08
2023-11-13T23:06:03.784Z,19.30
2023-11-13T23:08:32.953Z,19.10
2023-11-13T23:11:02.025Z,18.45
2023-11-13T23:13:31.363Z,19.67
2023-11-13T23:16:00.277Z,18.67
2023-11-13T23:18:30.783Z,18.50
2023-11-13T23:20:59.693Z,18.42
2023-11-13T23:23:28.876Z,19.30
2023-11-13T23:25:57.899Z,18.77
2023-11-13T23:28:27.262Z,19.42
2023-11-13T23:30:57.784Z,19.23
2023-11-13T23:33:27.801Z,19.50
2023-11-13T23:35:58.089Z,17.42
2023-11-13T23:38:27.235Z,17.38
2023-11-13T23:40:56.084Z,18.20
2023-11-13T23:43:25.420Z,18.95
2023-11-13T23:45:54.365Z,18.58
2023-11-13T23:48:23.665Z,19.75
2023-11-13T23:50:52.683Z,19.08
2023-11-13T23:53:23.203Z,17.67
2023-11-13T23:55:52.101Z,18.13
2023-11-13T23:58:21.224Z,19.38
